Terminal Aerodrome Forecast
Issued by NWS

Home | Current Version | Previous Version | Text Only | Print | Product List | Glossary On
Versions: 1 2 3 4 5 6 7 8 9 10 11 12
443
FTUS46 KLOX 081729
TAFWJF
TAF
KWJF 081729Z 0818/0918 04006KT P6SM SKC
     FM081900 06012KT P6SM SKC
     FM090400 05006KT P6SM SKC
     FM090800 VRB05KT P6SM SKC=

USA.gov is the U.S. government's official web portal to all federal, state and local government web resources and services.